sensor_id;sensor_type;location;lat;lon;timestamp;P1;durP1;ratioP1;P2;durP2;ratioP2
68432;SDS011;55412;51.350;17.056;2024-03-22T00:01:40;21.97;;;8.80;;
68432;SDS011;55412;51.350;17.056;2024-03-22T00:04:06;22.67;;;9.03;;
68432;SDS011;55412;51.350;17.056;2024-03-22T00:06:31;21.35;;;8.50;;
68432;SDS011;55412;51.350;17.056;2024-03-22T00:08:57;19.40;;;8.77;;
68432;SDS011;55412;51.350;17.056;2024-03-22T00:11:23;19.95;;;8.98;;
68432;SDS011;55412;51.350;17.056;2024-03-22T00:13:48;17.70;;;8.27;;
68432;SDS011;55412;51.350;17.056;2024-03-22T00:16:14;19.88;;;8.05;;
68432;SDS011;55412;51.350;17.056;2024-03-22T00:18:40;19.53;;;8.20;;
68432;SDS011;55412;51.350;17.056;2024-03-22T00:21:05;17.77;;;7.97;;
68432;SDS011;55412;51.350;17.056;2024-03-22T00:23:31;18.90;;;8.23;;
68432;SDS011;55412;51.350;17.056;2024-03-22T00:25:57;16.53;;;8.07;;
68432;SDS011;55412;51.350;17.056;2024-03-22T00:28:22;17.63;;;8.40;;
68432;SDS011;55412;51.350;17.056;2024-03-22T00:30:48;15.70;;;7.00;;
68432;SDS011;55412;51.350;17.056;2024-03-22T00:33:14;14.55;;;6.20;;
68432;SDS011;55412;51.350;17.056;2024-03-22T00:35:39;19.53;;;8.23;;
68432;SDS011;55412;51.350;17.056;2024-03-22T00:38:05;15.18;;;7.10;;
68432;SDS011;55412;51.350;17.056;2024-03-22T00:40:31;16.67;;;7.37;;
68432;SDS011;55412;51.350;17.056;2024-03-22T00:42:56;18.50;;;7.28;;
68432;SDS011;55412;51.350;17.056;2024-03-22T00:45:22;13.87;;;6.80;;
68432;SDS011;55412;51.350;17.056;2024-03-22T00:47:48;14.85;;;7.00;;
68432;SDS011;55412;51.350;17.056;2024-03-22T00:50:13;13.43;;;5.73;;
68432;SDS011;55412;51.350;17.056;2024-03-22T00:52:39;15.25;;;6.22;;
68432;SDS011;55412;51.350;17.056;2024-03-22T00:55:05;15.30;;;6.17;;
68432;SDS011;55412;51.350;17.056;2024-03-22T00:57:31;10.52;;;4.43;;
68432;SDS011;55412;51.350;17.056;2024-03-22T00:59:56;12.87;;;5.17;;
68432;SDS011;55412;51.350;17.056;2024-03-22T01:02:22;12.55;;;5.13;;
68432;SDS011;55412;51.350;17.056;2024-03-22T01:04:48;9.80;;;4.07;;
68432;SDS011;55412;51.350;17.056;2024-03-22T01:07:14;10.52;;;4.38;;
68432;SDS011;55412;51.350;17.056;2024-03-22T01:09:39;9.97;;;4.20;;
68432;SDS011;55412;51.350;17.056;2024-03-22T01:12:05;9.23;;;4.22;;
68432;SDS011;55412;51.350;17.056;2024-03-22T01:14:31;10.57;;;4.63;;
68432;SDS011;55412;51.350;17.056;2024-03-22T01:16:57;12.77;;;4.50;;
68432;SDS011;55412;51.350;17.056;2024-03-22T01:19:22;10.23;;;4.63;;
68432;SDS011;55412;51.350;17.056;2024-03-22T01:21:49;9.17;;;4.17;;
68432;SDS011;55412;51.350;17.056;2024-03-22T01:24:14;9.40;;;3.63;;
68432;SDS011;55412;51.350;17.056;2024-03-22T01:26:40;9.87;;;4.13;;
68432;SDS011;55412;51.350;17.056;2024-03-22T01:29:06;10.17;;;4.10;;
68432;SDS011;55412;51.350;17.056;2024-03-22T01:31:32;10.30;;;3.85;;
68432;SDS011;55412;51.350;17.056;2024-03-22T01:33:58;8.87;;;3.63;;
68432;SDS011;55412;51.350;17.056;2024-03-22T01:36:23;8.35;;;3.63;;
68432;SDS011;55412;51.350;17.056;2024-03-22T01:38:49;8.20;;;3.07;;
68432;SDS011;55412;51.350;17.056;2024-03-22T01:41:15;7.57;;;3.10;;
68432;SDS011;55412;51.350;17.056;2024-03-22T01:43:43;8.32;;;3.22;;
68432;SDS011;55412;51.350;17.056;2024-03-22T01:46:09;9.40;;;3.57;;
68432;SDS011;55412;51.350;17.056;2024-03-22T01:48:35;7.03;;;3.30;;
68432;SDS011;55412;51.350;17.056;2024-03-22T01:51:02;7.97;;;3.10;;
68432;SDS011;55412;51.350;17.056;2024-03-22T01:53:29;9.00;;;3.67;;
68432;SDS011;55412;51.350;17.056;2024-03-22T01:55:55;7.00;;;2.58;;
68432;SDS011;55412;51.350;17.056;2024-03-22T01:58:21;8.98;;;2.72;;
68432;SDS011;55412;51.350;17.056;2024-03-22T02:00:47;8.57;;;2.90;;
68432;SDS011;55412;51.350;17.056;2024-03-22T02:03:13;10.93;;;3.03;;
68432;SDS011;55412;51.350;17.056;2024-03-22T02:05:38;9.23;;;2.67;;
68432;SDS011;55412;51.350;17.056;2024-03-22T02:08:04;8.50;;;2.85;;
68432;SDS011;55412;51.350;17.056;2024-03-22T02:10:30;6.15;;;3.00;;
68432;SDS011;55412;51.350;17.056;2024-03-22T02:12:56;5.80;;;2.23;;
68432;SDS011;55412;51.350;17.056;2024-03-22T02:15:22;7.32;;;2.25;;
68432;SDS011;55412;51.350;17.056;2024-03-22T02:17:47;7.40;;;2.70;;
68432;SDS011;55412;51.350;17.056;2024-03-22T02:20:13;9.27;;;3.15;;
68432;SDS011;55412;51.350;17.056;2024-03-22T02:22:39;7.43;;;2.47;;
68432;SDS011;55412;51.350;17.056;2024-03-22T02:25:05;9.57;;;2.72;;
68432;SDS011;55412;51.350;17.056;2024-03-22T02:27:32;8.55;;;3.38;;
68432;SDS011;55412;51.350;17.056;2024-03-22T02:29:58;8.27;;;2.57;;
68432;SDS011;55412;51.350;17.056;2024-03-22T02:32:23;8.40;;;3.10;;
68432;SDS011;55412;51.350;17.056;2024-03-22T02:34:51;7.53;;;2.90;;
68432;SDS011;55412;51.350;17.056;2024-03-22T02:37:16;8.52;;;3.03;;
68432;SDS011;55412;51.350;17.056;2024-03-22T02:39:42;8.67;;;3.17;;
68432;SDS011;55412;51.350;17.056;2024-03-22T02:42:08;8.38;;;2.70;;
68432;SDS011;55412;51.350;17.056;2024-03-22T02:44:33;9.07;;;3.17;;
68432;SDS011;55412;51.350;17.056;2024-03-22T02:46:59;10.50;;;3.07;;
68432;SDS011;55412;51.350;17.056;2024-03-22T02:49:25;7.77;;;3.33;;
68432;SDS011;55412;51.350;17.056;2024-03-22T02:51:51;8.77;;;3.13;;
68432;SDS011;55412;51.350;17.056;2024-03-22T02:54:17;13.63;;;4.23;;
68432;SDS011;55412;51.350;17.056;2024-03-22T02:56:42;9.65;;;3.80;;
68432;SDS011;55412;51.350;17.056;2024-03-22T02:59:08;9.23;;;3.20;;
68432;SDS011;55412;51.350;17.056;2024-03-22T03:01:34;7.40;;;2.83;;
68432;SDS011;55412;51.350;17.056;2024-03-22T03:03:59;11.70;;;3.27;;
68432;SDS011;55412;51.350;17.056;2024-03-22T03:06:25;9.57;;;3.10;;
68432;SDS011;55412;51.350;17.056;2024-03-22T03:08:51;7.87;;;3.40;;
68432;SDS011;55412;51.350;17.056;2024-03-22T03:11:16;9.20;;;3.40;;
68432;SDS011;55412;51.350;17.056;2024-03-22T03:13:42;8.87;;;3.07;;
68432;SDS011;55412;51.350;17.056;2024-03-22T03:16:08;9.37;;;3.50;;
68432;SDS011;55412;51.350;17.056;2024-03-22T03:18:33;10.00;;;3.80;;
68432;SDS011;55412;51.350;17.056;2024-03-22T03:20:59;11.07;;;4.33;;
68432;SDS011;55412;51.350;17.056;2024-03-22T03:23:25;10.13;;;4.18;;
68432;SDS011;55412;51.350;17.056;2024-03-22T03:25:50;9.33;;;3.67;;
68432;SDS011;55412;51.350;17.056;2024-03-22T03:28:16;11.90;;;4.30;;
68432;SDS011;55412;51.350;17.056;2024-03-22T03:30:43;9.85;;;4.10;;
68432;SDS011;55412;51.350;17.056;2024-03-22T03:33:09;11.07;;;4.17;;
68432;SDS011;55412;51.350;17.056;2024-03-22T03:35:34;9.35;;;4.05;;
68432;SDS011;55412;51.350;17.056;2024-03-22T03:38:00;10.83;;;3.93;;
68432;SDS011;55412;51.350;17.056;2024-03-22T03:40:26;10.68;;;4.05;;
68432;SDS011;55412;51.350;17.056;2024-03-22T03:42:53;9.67;;;3.47;;
68432;SDS011;55412;51.350;17.056;2024-03-22T03:45:19;10.20;;;3.92;;
68432;SDS011;55412;51.350;17.056;2024-03-22T03:47:44;13.15;;;5.13;;
68432;SDS011;55412;51.350;17.056;2024-03-22T03:50:10;11.30;;;4.70;;
68432;SDS011;55412;51.350;17.056;2024-03-22T03:52:36;11.07;;;4.70;;
68432;SDS011;55412;51.350;17.056;2024-03-22T03:55:01;10.97;;;4.60;;
68432;SDS011;55412;51.350;17.056;2024-03-22T03:57:27;10.88;;;4.88;;
68432;SDS011;55412;51.350;17.056;2024-03-22T03:59:53;12.60;;;4.43;;
68432;SDS011;55412;51.350;17.056;2024-03-22T04:02:18;12.02;;;4.28;;
68432;SDS011;55412;51.350;17.056;2024-03-22T04:04:44;10.07;;;4.03;;
68432;SDS011;55412;51.350;17.056;2024-03-22T04:07:10;12.02;;;4.35;;
68432;SDS011;55412;51.350;17.056;2024-03-22T04:09:36;10.97;;;4.73;;
68432;SDS011;55412;51.350;17.056;2024-03-22T04:12:01;12.63;;;5.00;;
68432;SDS011;55412;51.350;17.056;2024-03-22T04:14:27;10.70;;;4.60;;
68432;SDS011;55412;51.350;17.056;2024-03-22T04:16:53;11.48;;;4.88;;
68432;SDS011;55412;51.350;17.056;2024-03-22T04:19:21;10.45;;;4.10;;
68432;SDS011;55412;51.350;17.056;2024-03-22T04:21:47;10.77;;;3.63;;
68432;SDS011;55412;51.350;17.056;2024-03-22T04:24:14;10.30;;;4.07;;
68432;SDS011;55412;51.350;17.056;2024-03-22T04:26:40;10.85;;;4.47;;
68432;SDS011;55412;51.350;17.056;2024-03-22T04:29:05;11.30;;;3.83;;
68432;SDS011;55412;51.350;17.056;2024-03-22T04:31:31;10.27;;;4.63;;
68432;SDS011;55412;51.350;17.056;2024-03-22T04:33:57;11.80;;;4.53;;
68432;SDS011;55412;51.350;17.056;2024-03-22T04:36:22;11.02;;;3.78;;
68432;SDS011;55412;51.350;17.056;2024-03-22T04:38:51;10.52;;;4.15;;
68432;SDS011;55412;51.350;17.056;2024-03-22T04:41:17;9.60;;;3.90;;
68432;SDS011;55412;51.350;17.056;2024-03-22T04:43:42;11.50;;;4.00;;
68432;SDS011;55412;51.350;17.056;2024-03-22T04:46:08;10.33;;;4.00;;
68432;SDS011;55412;51.350;17.056;2024-03-22T04:48:34;9.93;;;4.13;;
68432;SDS011;55412;51.350;17.056;2024-03-22T04:51:00;11.07;;;3.73;;
68432;SDS011;55412;51.350;17.056;2024-03-22T04:53:25;10.38;;;3.88;;
68432;SDS011;55412;51.350;17.056;2024-03-22T04:55:51;10.87;;;4.23;;
68432;SDS011;55412;51.350;17.056;2024-03-22T04:58:18;11.07;;;4.07;;
68432;SDS011;55412;51.350;17.056;2024-03-22T05:00:45;9.93;;;4.00;;
68432;SDS011;55412;51.350;17.056;2024-03-22T05:03:12;12.07;;;4.95;;
68432;SDS011;55412;51.350;17.056;2024-03-22T05:05:38;13.67;;;4.50;;
68432;SDS011;55412;51.350;17.056;2024-03-22T05:08:05;11.38;;;4.53;;
68432;SDS011;55412;51.350;17.056;2024-03-22T05:10:32;13.25;;;4.40;;
68432;SDS011;55412;51.350;17.056;2024-03-22T05:12:58;12.63;;;5.15;;
68432;SDS011;55412;51.350;17.056;2024-03-22T05:15:24;12.90;;;4.63;;
68432;SDS011;55412;51.350;17.056;2024-03-22T05:17:51;11.00;;;4.93;;
68432;SDS011;55412;51.350;17.056;2024-03-22T05:20:18;12.45;;;5.03;;
68432;SDS011;55412;51.350;17.056;2024-03-22T05:22:44;12.38;;;4.93;;
68432;SDS011;55412;51.350;17.056;2024-03-22T05:25:10;13.90;;;5.35;;
68432;SDS011;55412;51.350;17.056;2024-03-22T05:27:37;11.70;;;4.37;;
68432;SDS011;55412;51.350;17.056;2024-03-22T05:30:06;14.02;;;5.15;;
68432;SDS011;55412;51.350;17.056;2024-03-22T05:32:33;11.35;;;4.30;;
68432;SDS011;55412;51.350;17.056;2024-03-22T05:34:58;12.87;;;5.20;;
68432;SDS011;55412;51.350;17.056;2024-03-22T05:37:24;14.13;;;5.65;;
68432;SDS011;55412;51.350;17.056;2024-03-22T05:39:50;11.43;;;4.33;;
68432;SDS011;55412;51.350;17.056;2024-03-22T05:42:15;11.93;;;4.70;;
68432;SDS011;55412;51.350;17.056;2024-03-22T05:44:41;14.17;;;5.07;;
68432;SDS011;55412;51.350;17.056;2024-03-22T05:47:07;16.75;;;5.95;;
68432;SDS011;55412;51.350;17.056;2024-03-22T05:49:33;12.53;;;5.27;;
68432;SDS011;55412;51.350;17.056;2024-03-22T05:51:59;14.55;;;5.53;;
68432;SDS011;55412;51.350;17.056;2024-03-22T05:54:24;16.70;;;6.77;;
68432;SDS011;55412;51.350;17.056;2024-03-22T05:56:50;14.95;;;6.00;;
68432;SDS011;55412;51.350;17.056;2024-03-22T05:59:16;19.35;;;6.40;;
68432;SDS011;55412;51.350;17.056;2024-03-22T06:01:41;17.00;;;6.47;;
68432;SDS011;55412;51.350;17.056;2024-03-22T06:04:07;13.90;;;5.72;;
68432;SDS011;55412;51.350;17.056;2024-03-22T06:06:34;19.40;;;7.10;;
68432;SDS011;55412;51.350;17.056;2024-03-22T06:09:03;17.10;;;6.20;;
68432;SDS011;55412;51.350;17.056;2024-03-22T06:11:33;16.40;;;6.88;;
68432;SDS011;55412;51.350;17.056;2024-03-22T06:13:59;19.90;;;6.73;;
68432;SDS011;55412;51.350;17.056;2024-03-22T06:16:25;17.13;;;7.20;;
68432;SDS011;55412;51.350;17.056;2024-03-22T06:18:51;19.98;;;7.65;;
68432;SDS011;55412;51.350;17.056;2024-03-22T06:21:16;16.17;;;6.67;;
68432;SDS011;55412;51.350;17.056;2024-03-22T06:23:50;17.77;;;7.32;;
68432;SDS011;55412;51.350;17.056;2024-03-22T06:26:16;19.02;;;6.50;;
68432;SDS011;55412;51.350;17.056;2024-03-22T06:28:42;17.10;;;6.45;;
68432;SDS011;55412;51.350;17.056;2024-03-22T06:31:08;16.93;;;6.43;;
68432;SDS011;55412;51.350;17.056;2024-03-22T06:33:34;19.92;;;7.20;;
68432;SDS011;55412;51.350;17.056;2024-03-22T06:36:00;20.53;;;6.80;;
68432;SDS011;55412;51.350;17.056;2024-03-22T06:38:26;19.98;;;7.28;;
68432;SDS011;55412;51.350;17.056;2024-03-22T06:40:52;20.55;;;7.00;;
68432;SDS011;55412;51.350;17.056;2024-03-22T06:43:17;16.63;;;6.00;;
68432;SDS011;55412;51.350;17.056;2024-03-22T06:45:44;15.80;;;6.38;;
68432;SDS011;55412;51.350;17.056;2024-03-22T06:48:09;15.77;;;5.90;;
68432;SDS011;55412;51.350;17.056;2024-03-22T06:50:35;23.40;;;8.83;;
68432;SDS011;55412;51.350;17.056;2024-03-22T06:53:01;25.13;;;9.60;;
68432;SDS011;55412;51.350;17.056;2024-03-22T06:55:26;23.67;;;9.20;;
68432;SDS011;55412;51.350;17.056;2024-03-22T06:57:52;23.53;;;8.27;;
68432;SDS011;55412;51.350;17.056;2024-03-22T07:00:18;22.75;;;9.52;;
68432;SDS011;55412;51.350;17.056;2024-03-22T07:02:44;18.02;;;7.07;;
68432;SDS011;55412;51.350;17.056;2024-03-22T07:05:10;22.67;;;8.87;;
68432;SDS011;55412;51.350;17.056;2024-03-22T07:07:36;18.55;;;7.63;;
68432;SDS011;55412;51.350;17.056;2024-03-22T07:10:03;20.48;;;8.07;;
68432;SDS011;55412;51.350;17.056;2024-03-22T07:12:31;13.35;;;5.95;;
68432;SDS011;55412;51.350;17.056;2024-03-22T07:14:57;20.65;;;7.85;;
68432;SDS011;55412;51.350;17.056;2024-03-22T07:17:24;17.33;;;7.03;;
68432;SDS011;55412;51.350;17.056;2024-03-22T07:19:50;18.92;;;7.10;;
68432;SDS011;55412;51.350;17.056;2024-03-22T07:22:16;17.90;;;8.13;;
68432;SDS011;55412;51.350;17.056;2024-03-22T07:24:43;17.65;;;7.35;;
68432;SDS011;55412;51.350;17.056;2024-03-22T07:27:08;14.67;;;6.03;;
68432;SDS011;55412;51.350;17.056;2024-03-22T07:29:34;18.67;;;7.50;;
68432;SDS011;55412;51.350;17.056;2024-03-22T07:32:00;15.93;;;6.50;;
68432;SDS011;55412;51.350;17.056;2024-03-22T07:34:26;16.70;;;6.28;;
68432;SDS011;55412;51.350;17.056;2024-03-22T07:36:52;16.80;;;5.83;;
68432;SDS011;55412;51.350;17.056;2024-03-22T07:39:18;15.80;;;6.00;;
68432;SDS011;55412;51.350;17.056;2024-03-22T07:41:44;17.15;;;6.60;;
68432;SDS011;55412;51.350;17.056;2024-03-22T07:44:09;14.47;;;5.83;;
68432;SDS011;55412;51.350;17.056;2024-03-22T07:46:36;17.58;;;7.25;;
68432;SDS011;55412;51.350;17.056;2024-03-22T07:49:02;14.80;;;5.80;;
68432;SDS011;55412;51.350;17.056;2024-03-22T07:51:29;14.13;;;5.93;;
68432;SDS011;55412;51.350;17.056;2024-03-22T07:53:55;15.13;;;6.17;;
68432;SDS011;55412;51.350;17.056;2024-03-22T07:56:21;18.65;;;6.55;;
68432;SDS011;55412;51.350;17.056;2024-03-22T07:58:47;14.23;;;5.93;;
68432;SDS011;55412;51.350;17.056;2024-03-22T08:01:13;16.13;;;6.33;;
68432;SDS011;55412;51.350;17.056;2024-03-22T08:03:39;15.95;;;6.82;;
68432;SDS011;55412;51.350;17.056;2024-03-22T08:06:05;15.73;;;6.10;;
68432;SDS011;55412;51.350;17.056;2024-03-22T08:08:30;14.47;;;5.50;;
68432;SDS011;55412;51.350;17.056;2024-03-22T08:10:56;17.52;;;6.68;;
68432;SDS011;55412;51.350;17.056;2024-03-22T08:13:22;16.73;;;7.37;;
68432;SDS011;55412;51.350;17.056;2024-03-22T08:15:47;18.35;;;7.10;;
68432;SDS011;55412;51.350;17.056;2024-03-22T08:18:13;16.53;;;6.27;;
68432;SDS011;55412;51.350;17.056;2024-03-22T08:20:39;18.88;;;7.15;;
68432;SDS011;55412;51.350;17.056;2024-03-22T08:23:05;18.17;;;7.37;;
68432;SDS011;55412;51.350;17.056;2024-03-22T08:25:31;17.30;;;6.45;;
68432;SDS011;55412;51.350;17.056;2024-03-22T08:27:57;16.08;;;6.43;;
68432;SDS011;55412;51.350;17.056;2024-03-22T08:30:23;19.93;;;7.50;;
68432;SDS011;55412;51.350;17.056;2024-03-22T08:32:50;19.50;;;7.65;;
68432;SDS011;55412;51.350;17.056;2024-03-22T08:35:16;18.67;;;7.68;;
68432;SDS011;55412;51.350;17.056;2024-03-22T08:37:42;13.87;;;5.53;;
68432;SDS011;55412;51.350;17.056;2024-03-22T08:40:08;15.13;;;6.17;;
68432;SDS011;55412;51.350;17.056;2024-03-22T08:42:35;16.33;;;6.90;;
68432;SDS011;55412;51.350;17.056;2024-03-22T08:45:01;17.25;;;6.43;;
68432;SDS011;55412;51.350;17.056;2024-03-22T08:47:28;15.37;;;6.70;;
68432;SDS011;55412;51.350;17.056;2024-03-22T08:49:54;16.20;;;6.25;;
68432;SDS011;55412;51.350;17.056;2024-03-22T08:52:21;16.02;;;6.47;;
68432;SDS011;55412;51.350;17.056;2024-03-22T08:54:49;13.35;;;5.80;;
68432;SDS011;55412;51.350;17.056;2024-03-22T08:57:15;13.30;;;5.37;;
68432;SDS011;55412;51.350;17.056;2024-03-22T08:59:41;14.93;;;6.38;;
68432;SDS011;55412;51.350;17.056;2024-03-22T09:02:07;12.80;;;5.20;;
68432;SDS011;55412;51.350;17.056;2024-03-22T09:04:32;13.93;;;5.78;;
68432;SDS011;55412;51.350;17.056;2024-03-22T09:06:58;12.37;;;5.53;;
68432;SDS011;55412;51.350;17.056;2024-03-22T09:09:24;16.58;;;6.10;;
68432;SDS011;55412;51.350;17.056;2024-03-22T09:11:49;13.37;;;5.63;;
68432;SDS011;55412;51.350;17.056;2024-03-22T09:14:15;16.40;;;6.13;;
68432;SDS011;55412;51.350;17.056;2024-03-22T09:16:42;13.68;;;5.70;;
68432;SDS011;55412;51.350;17.056;2024-03-22T09:19:08;16.40;;;6.17;;
68432;SDS011;55412;51.350;17.056;2024-03-22T09:21:35;14.32;;;6.03;;
68432;SDS011;55412;51.350;17.056;2024-03-22T09:24:01;15.27;;;5.97;;
68432;SDS011;55412;51.350;17.056;2024-03-22T09:26:28;14.90;;;6.45;;
68432;SDS011;55412;51.350;17.056;2024-03-22T09:28:54;16.10;;;6.03;;
68432;SDS011;55412;51.350;17.056;2024-03-22T09:31:20;16.27;;;5.63;;
68432;SDS011;55412;51.350;17.056;2024-03-22T09:33:45;13.07;;;5.73;;
68432;SDS011;55412;51.350;17.056;2024-03-22T09:36:11;15.55;;;6.45;;
68432;SDS011;55412;51.350;17.056;2024-03-22T09:38:37;14.87;;;5.70;;
68432;SDS011;55412;51.350;17.056;2024-03-22T09:41:02;14.48;;;6.20;;
68432;SDS011;55412;51.350;17.056;2024-03-22T09:43:28;13.50;;;5.40;;
68432;SDS011;55412;51.350;17.056;2024-03-22T09:45:57;12.32;;;5.07;;
68432;SDS011;55412;51.350;17.056;2024-03-22T09:48:23;12.77;;;5.53;;
68432;SDS011;55412;51.350;17.056;2024-03-22T09:50:50;13.43;;;6.00;;
68432;SDS011;55412;51.350;17.056;2024-03-22T09:53:17;14.95;;;5.93;;
68432;SDS011;55412;51.350;17.056;2024-03-22T09:55:45;14.23;;;5.97;;
68432;SDS011;55412;51.350;17.056;2024-03-22T09:58:12;13.40;;;5.53;;
68432;SDS011;55412;51.350;17.056;2024-03-22T10:00:38;13.98;;;6.85;;
68432;SDS011;55412;51.350;17.056;2024-03-22T10:03:04;14.10;;;5.87;;
68432;SDS011;55412;51.350;17.056;2024-03-22T10:05:30;15.95;;;5.80;;
68432;SDS011;55412;51.350;17.056;2024-03-22T10:07:57;15.00;;;6.75;;
68432;SDS011;55412;51.350;17.056;2024-03-22T10:10:23;14.60;;;5.97;;
68432;SDS011;55412;51.350;17.056;2024-03-22T10:12:49;15.83;;;5.63;;
68432;SDS011;55412;51.350;17.056;2024-03-22T10:15:14;12.90;;;5.70;;
68432;SDS011;55412;51.350;17.056;2024-03-22T10:17:41;21.90;;;6.97;;
68432;SDS011;55412;51.350;17.056;2024-03-22T10:20:07;16.73;;;6.93;;
68432;SDS011;55412;51.350;17.056;2024-03-22T10:25:33;15.07;;;6.78;;
68432;SDS011;55412;51.350;17.056;2024-03-22T10:27:59;16.20;;;6.73;;
68432;SDS011;55412;51.350;17.056;2024-03-22T10:30:25;17.30;;;7.32;;
68432;SDS011;55412;51.350;17.056;2024-03-22T10:32:52;13.70;;;6.90;;
68432;SDS011;55412;51.350;17.056;2024-03-22T10:35:19;15.70;;;7.18;;
68432;SDS011;55412;51.350;17.056;2024-03-22T10:37:44;16.10;;;7.10;;
68432;SDS011;55412;51.350;17.056;2024-03-22T10:40:10;14.07;;;6.28;;
68432;SDS011;55412;51.350;17.056;2024-03-22T10:42:37;16.00;;;6.65;;
68432;SDS011;55412;51.350;17.056;2024-03-22T10:45:04;15.20;;;6.50;;
68432;SDS011;55412;51.350;17.056;2024-03-22T10:47:33;15.07;;;6.78;;
68432;SDS011;55412;51.350;17.056;2024-03-22T10:50:07;16.05;;;6.63;;
68432;SDS011;55412;51.350;17.056;2024-03-22T10:52:41;15.18;;;7.25;;
68432;SDS011;55412;51.350;17.056;2024-03-22T10:55:23;14.50;;;6.88;;
68432;SDS011;55412;51.350;17.056;2024-03-22T10:57:56;13.63;;;5.50;;
68432;SDS011;55412;51.350;17.056;2024-03-22T11:00:29;12.48;;;6.07;;
68432;SDS011;55412;51.350;17.056;2024-03-22T11:03:03;13.27;;;5.88;;
68432;SDS011;55412;51.350;17.056;2024-03-22T11:05:29;13.90;;;6.38;;
68432;SDS011;55412;51.350;17.056;2024-03-22T11:08:04;15.88;;;6.45;;
68432;SDS011;55412;51.350;17.056;2024-03-22T11:10:30;16.27;;;6.50;;
68432;SDS011;55412;51.350;17.056;2024-03-22T11:13:02;12.75;;;5.60;;
68432;SDS011;55412;51.350;17.056;2024-03-22T11:15:32;13.98;;;5.32;;
68432;SDS011;55412;51.350;17.056;2024-03-22T11:17:58;12.77;;;6.07;;
68432;SDS011;55412;51.350;17.056;2024-03-22T11:20:27;14.57;;;5.30;;
68432;SDS011;55412;51.350;17.056;2024-03-22T11:22:55;11.57;;;5.43;;
68432;SDS011;55412;51.350;17.056;2024-03-22T11:25:21;11.27;;;5.28;;
68432;SDS011;55412;51.350;17.056;2024-03-22T11:27:47;12.70;;;5.32;;
68432;SDS011;55412;51.350;17.056;2024-03-22T11:30:13;11.43;;;4.83;;
68432;SDS011;55412;51.350;17.056;2024-03-22T11:32:42;14.00;;;5.07;;
68432;SDS011;55412;51.350;17.056;2024-03-22T11:35:12;13.38;;;5.70;;
68432;SDS011;55412;51.350;17.056;2024-03-22T11:37:41;11.40;;;4.78;;
68432;SDS011;55412;51.350;17.056;2024-03-22T11:40:10;10.77;;;4.57;;
68432;SDS011;55412;51.350;17.056;2024-03-22T11:42:38;11.70;;;5.05;;
68432;SDS011;55412;51.350;17.056;2024-03-22T11:45:06;11.50;;;4.95;;
68432;SDS011;55412;51.350;17.056;2024-03-22T11:47:35;10.32;;;3.92;;
68432;SDS011;55412;51.350;17.056;2024-03-22T11:50:01;13.80;;;4.20;;
68432;SDS011;55412;51.350;17.056;2024-03-22T11:52:27;10.83;;;5.07;;
68432;SDS011;55412;51.350;17.056;2024-03-22T11:54:54;10.10;;;4.57;;
68432;SDS011;55412;51.350;17.056;2024-03-22T11:57:20;10.25;;;4.35;;
68432;SDS011;55412;51.350;17.056;2024-03-22T11:59:46;13.03;;;5.10;;
68432;SDS011;55412;51.350;17.056;2024-03-22T12:02:12;9.70;;;4.38;;
68432;SDS011;55412;51.350;17.056;2024-03-22T12:04:41;13.23;;;5.13;;
68432;SDS011;55412;51.350;17.056;2024-03-22T12:07:12;12.13;;;4.35;;
68432;SDS011;55412;51.350;17.056;2024-03-22T12:09:39;10.50;;;4.13;;
68432;SDS011;55412;51.350;17.056;2024-03-22T12:12:07;9.30;;;3.42;;
68432;SDS011;55412;51.350;17.056;2024-03-22T12:14:34;11.52;;;4.20;;
68432;SDS011;55412;51.350;17.056;2024-03-22T12:17:01;9.00;;;4.10;;
68432;SDS011;55412;51.350;17.056;2024-03-22T12:19:28;10.82;;;4.30;;
68432;SDS011;55412;51.350;17.056;2024-03-22T12:21:54;9.47;;;3.80;;
68432;SDS011;55412;51.350;17.056;2024-03-22T12:24:20;9.48;;;3.90;;
68432;SDS011;55412;51.350;17.056;2024-03-22T12:26:47;10.35;;;4.03;;
68432;SDS011;55412;51.350;17.056;2024-03-22T12:29:14;11.38;;;4.00;;
68432;SDS011;55412;51.350;17.056;2024-03-22T12:31:41;14.40;;;4.55;;
68432;SDS011;55412;51.350;17.056;2024-03-22T12:34:07;13.50;;;4.43;;
68432;SDS011;55412;51.350;17.056;2024-03-22T12:36:33;13.00;;;4.07;;
68432;SDS011;55412;51.350;17.056;2024-03-22T12:38:59;11.80;;;4.40;;
68432;SDS011;55412;51.350;17.056;2024-03-22T12:41:25;11.50;;;4.90;;
68432;SDS011;55412;51.350;17.056;2024-03-22T12:43:51;15.93;;;5.05;;
68432;SDS011;55412;51.350;17.056;2024-03-22T12:46:17;17.03;;;5.40;;
68432;SDS011;55412;51.350;17.056;2024-03-22T12:48:43;18.30;;;5.13;;
68432;SDS011;55412;51.350;17.056;2024-03-22T12:51:08;13.60;;;5.37;;
68432;SDS011;55412;51.350;17.056;2024-03-22T12:53:34;12.60;;;4.82;;
68432;SDS011;55412;51.350;17.056;2024-03-22T12:56:00;11.87;;;4.90;;
68432;SDS011;55412;51.350;17.056;2024-03-22T12:58:26;12.18;;;4.70;;
68432;SDS011;55412;51.350;17.056;2024-03-22T13:00:51;11.33;;;4.83;;
68432;SDS011;55412;51.350;17.056;2024-03-22T13:03:17;13.38;;;5.20;;
68432;SDS011;55412;51.350;17.056;2024-03-22T13:05:43;10.27;;;4.75;;
68432;SDS011;55412;51.350;17.056;2024-03-22T13:08:08;11.87;;;4.87;;
68432;SDS011;55412;51.350;17.056;2024-03-22T13:10:34;13.50;;;4.65;;
68432;SDS011;55412;51.350;17.056;2024-03-22T13:13:00;10.70;;;5.03;;
68432;SDS011;55412;51.350;17.056;2024-03-22T13:15:26;12.45;;;4.90;;
68432;SDS011;55412;51.350;17.056;2024-03-22T13:17:52;14.03;;;6.13;;
68432;SDS011;55412;51.350;17.056;2024-03-22T13:20:20;12.00;;;5.07;;
68432;SDS011;55412;51.350;17.056;2024-03-22T13:22:46;13.35;;;5.18;;
68432;SDS011;55412;51.350;17.056;2024-03-22T13:25:11;12.57;;;5.43;;
68432;SDS011;55412;51.350;17.056;2024-03-22T13:27:37;11.73;;;5.03;;
68432;SDS011;55412;51.350;17.056;2024-03-22T13:30:06;12.80;;;4.37;;
68432;SDS011;55412;51.350;17.056;2024-03-22T13:32:37;10.45;;;4.45;;
68432;SDS011;55412;51.350;17.056;2024-03-22T13:35:04;11.50;;;4.13;;
68432;SDS011;55412;51.350;17.056;2024-03-22T13:37:30;10.07;;;4.15;;
68432;SDS011;55412;51.350;17.056;2024-03-22T13:39:57;12.10;;;3.95;;
68432;SDS011;55412;51.350;17.056;2024-03-22T13:42:23;7.90;;;3.10;;
68432;SDS011;55412;51.350;17.056;2024-03-22T13:44:49;10.48;;;3.88;;
68432;SDS011;55412;51.350;17.056;2024-03-22T13:47:15;9.52;;;3.42;;
68432;SDS011;55412;51.350;17.056;2024-03-22T13:49:40;11.97;;;3.93;;
68432;SDS011;55412;51.350;17.056;2024-03-22T13:52:07;12.57;;;3.33;;
68432;SDS011;55412;51.350;17.056;2024-03-22T13:54:33;10.13;;;3.92;;
68432;SDS011;55412;51.350;17.056;2024-03-22T13:56:58;11.00;;;3.37;;
68432;SDS011;55412;51.350;17.056;2024-03-22T13:59:26;10.07;;;3.33;;
68432;SDS011;55412;51.350;17.056;2024-03-22T14:01:52;9.80;;;3.33;;
68432;SDS011;55412;51.350;17.056;2024-03-22T14:04:18;9.07;;;3.40;;
68432;SDS011;55412;51.350;17.056;2024-03-22T14:06:46;10.63;;;3.42;;
68432;SDS011;55412;51.350;17.056;2024-03-22T14:09:12;8.00;;;3.20;;
68432;SDS011;55412;51.350;17.056;2024-03-22T14:11:41;11.85;;;2.78;;
68432;SDS011;55412;51.350;17.056;2024-03-22T14:14:10;9.13;;;2.47;;
68432;SDS011;55412;51.350;17.056;2024-03-22T14:16:39;7.57;;;2.42;;
68432;SDS011;55412;51.350;17.056;2024-03-22T14:19:06;10.00;;;2.83;;
68432;SDS011;55412;51.350;17.056;2024-03-22T14:21:34;6.05;;;2.30;;